Canyonville, Oregon
Current Conditions -  °F | °C
As of 11:53 PM on Wednesday 28 Jan 2015 (Local Time) from KRBG Reporting Station
Overcast Overcast  
Wind Chill: 44°   Ceiling: 400
Heat Index: 44°   Visibility: 7mi
Dew Point: 42°   Wind: 0mph
Humidity: 93%   Direction: NA
Pressure: 30.3"   Gusts: NA
Location:  42.93°N, 123.28°W
Report Text: KRBG 290753Z AUTO 00000KT 7SM OVC004 07/06 A3030 RMK AO2 SLP264 T00670056 401330061
Loading
Personal Weather Stations






























Interactive Weather Map New forecast layout! Learn more

10-Day Weather Forecast

Advertisements
Track Severe Weather on mobile